HISTORICAL SENSOR DATA

Sensor Data Report

DB LIVE
CURRENT TIME--:--:--
DEVICE NETWORK Gateway Status
13 ESP · realtime ~1s · history 60s
Weather WS-MOD-01
ONLINE
Actuator ACT-MOD-01
OFFLINE
Mainboard L3 MB-L3-01
OFFLINE
Mainboard L5 MB-L5-01
ONLINE
Remote AC AC-REMOTE-01
OFFLINE
PZEM L3-01 PWR-L3-01
OFFLINE
PZEM L3-02 PWR-L3-02
OFFLINE
PZEM L3-03 PWR-L3-03
OFFLINE
PZEM L3-04 PWR-L3-04
OFFLINE
PZEM L5-01 PWR-L5-01
ONLINE
PZEM L5-02 PWR-L5-02
OFFLINE
PZEM L5-03 PWR-L5-03
OFFLINE
PZEM L5-04 PWR-L5-04
OFFLINE
REPORT FILTER

Periode & Sensor

DATABASE HISTORY
RESET
QUICK RANGE Hari ini 7 hari 30 hari
PERIODE31 Aug 2026sampai 06 Sep 2026
TOTAL DATA44,062sensor readings
MINIMUM-0.50sesuai filter
AVERAGE88.62sesuai filter
MAXIMUM32,564.20sesuai filter
REPORT RESULT

Data Sensor

31/08/2026 — 06/09/2026 EXPORT CSV
NOTANGGALWAKTUDEVICECHANNELSENSORVALUEUNIT
2101 06/09/2026 13:52:00 MB-L5-01Mainboard Lantai 5 L5-LUX-01 Illuminance / LUX 1 642.80 lux
2102 06/09/2026 13:52:00 MB-L5-01Mainboard Lantai 5 L5-AI-03 Analog Input 3 3.05 V
2103 06/09/2026 13:51:00 MB-L5-01Mainboard Lantai 5 L5-LUX-06 Illuminance / LUX 6 1,165.90 lux
2104 06/09/2026 13:51:00 MB-L5-01Mainboard Lantai 5 L5-RAD-02 Radiation 2 4.00 W/m²
2105 06/09/2026 13:51:00 MB-L5-01Mainboard Lantai 5 L5-RAD-01 Radiation 1 5.00 W/m²
2106 06/09/2026 13:51:00 MB-L5-01Mainboard Lantai 5 L5-AI-04 Analog Input 4 3.05 V
2107 06/09/2026 13:51:00 MB-L5-01Mainboard Lantai 5 L5-LUX-05 Illuminance / LUX 5 31,720.70 lux
2108 06/09/2026 13:51:00 MB-L5-01Mainboard Lantai 5 L5-AI-02 Analog Input 2 3.05 V
2109 06/09/2026 13:51:00 MB-L5-01Mainboard Lantai 5 L5-HFT-01 Heat Flow Temperature 1 33.90 °C
2110 06/09/2026 13:51:00 MB-L5-01Mainboard Lantai 5 L5-BGT-02 Black Globe Temperature 2 30.40 °C
2111 06/09/2026 13:51:00 MB-L5-01Mainboard Lantai 5 L5-LUX-04 Illuminance / LUX 4 790.90 lux
2112 06/09/2026 13:51:00 MB-L5-01Mainboard Lantai 5 L5-LUX-03 Illuminance / LUX 3 1,139.70 lux
2113 06/09/2026 13:51:00 MB-L5-01Mainboard Lantai 5 L5-LUX-02 Illuminance / LUX 2 2,760.10 lux
2114 06/09/2026 13:51:00 MB-L5-01Mainboard Lantai 5 L5-SHT-01-RH SHT20 1 Humidity 31.90 %RH
2115 06/09/2026 13:51:00 MB-L5-01Mainboard Lantai 5 L5-AI-05 Analog Input 5 3.05 V
2116 06/09/2026 13:51:00 MB-L5-01Mainboard Lantai 5 L5-ST-01 Surface Temperature 1 32.20 °C
2117 06/09/2026 13:51:00 MB-L5-01Mainboard Lantai 5 L5-SHT-01-T SHT20 1 Temperature 31.90 °C
2118 06/09/2026 13:51:00 MB-L5-01Mainboard Lantai 5 L5-SHT-02-T SHT20 2 Temperature 31.20 °C
2119 06/09/2026 13:51:00 MB-L5-01Mainboard Lantai 5 L5-LUX-01 Illuminance / LUX 1 640.00 lux
2120 06/09/2026 13:51:00 MB-L5-01Mainboard Lantai 5 L5-AI-03 Analog Input 3 3.05 V
2121 06/09/2026 13:51:00 MB-L5-01Mainboard Lantai 5 L5-BGT-03 Black Globe Temperature 3 30.60 °C
2122 06/09/2026 13:51:00 MB-L5-01Mainboard Lantai 5 L5-HFT-02 Heat Flow Temperature 2 30.90 °C
2123 06/09/2026 13:51:00 WS-MOD-01Weather Station Module WS-PRES Tekanan Udara 908.00 hPa
2124 06/09/2026 13:51:00 MB-L5-01Mainboard Lantai 5 L5-SHT-03-RH SHT20 3 Humidity 31.60 %RH
2125 06/09/2026 13:51:00 MB-L5-01Mainboard Lantai 5 L5-SHT-03-T SHT20 3 Temperature 31.40 °C
2126 06/09/2026 13:51:00 MB-L5-01Mainboard Lantai 5 L5-SHT-02-RH SHT20 2 Humidity 32.40 %RH
2127 06/09/2026 13:51:00 WS-MOD-01Weather Station Module WS-RH Kelembapan Udara 37.00 %RH
2128 06/09/2026 13:51:00 WS-MOD-01Weather Station Module WS-TEMP Suhu Udara 29.50 °C
2129 06/09/2026 13:51:00 WS-MOD-01Weather Station Module WS-DIR Arah Angin 158.50 °
2130 06/09/2026 13:51:00 WS-MOD-01Weather Station Module WS-WIND Kecepatan Angin 4.64 m/s
2131 06/09/2026 13:51:00 MB-L5-01Mainboard Lantai 5 L5-AI-01 Analog Input 1 3.05 V
2132 06/09/2026 13:51:00 MB-L5-01Mainboard Lantai 5 L5-ST-02 Surface Temperature 2 34.00 °C
2133 06/09/2026 13:51:00 MB-L5-01Mainboard Lantai 5 L5-AI-06 Analog Input 6 3.05 V
2134 06/09/2026 13:51:00 MB-L5-01Mainboard Lantai 5 L5-BGT-01 Black Globe Temperature 1 30.70 °C
2135 06/09/2026 13:50:00 MB-L5-01Mainboard Lantai 5 L5-LUX-05 Illuminance / LUX 5 32,402.60 lux
2136 06/09/2026 13:50:00 MB-L5-01Mainboard Lantai 5 L5-AI-02 Analog Input 2 3.05 V
2137 06/09/2026 13:50:00 MB-L5-01Mainboard Lantai 5 L5-HFT-01 Heat Flow Temperature 1 33.80 °C
2138 06/09/2026 13:50:00 MB-L5-01Mainboard Lantai 5 L5-BGT-02 Black Globe Temperature 2 30.30 °C
2139 06/09/2026 13:50:00 MB-L5-01Mainboard Lantai 5 L5-LUX-04 Illuminance / LUX 4 779.50 lux
2140 06/09/2026 13:50:00 MB-L5-01Mainboard Lantai 5 L5-LUX-03 Illuminance / LUX 3 1,126.50 lux
2141 06/09/2026 13:50:00 MB-L5-01Mainboard Lantai 5 L5-LUX-02 Illuminance / LUX 2 2,735.70 lux
2142 06/09/2026 13:50:00 MB-L5-01Mainboard Lantai 5 L5-SHT-01-RH SHT20 1 Humidity 32.20 %RH
2143 06/09/2026 13:50:00 MB-L5-01Mainboard Lantai 5 L5-AI-05 Analog Input 5 3.05 V
2144 06/09/2026 13:50:00 MB-L5-01Mainboard Lantai 5 L5-ST-01 Surface Temperature 1 32.40 °C
2145 06/09/2026 13:50:00 MB-L5-01Mainboard Lantai 5 L5-SHT-01-T SHT20 1 Temperature 31.50 °C
2146 06/09/2026 13:50:00 MB-L5-01Mainboard Lantai 5 L5-SHT-02-T SHT20 2 Temperature 31.00 °C
2147 06/09/2026 13:50:00 MB-L5-01Mainboard Lantai 5 L5-LUX-01 Illuminance / LUX 1 603.50 lux
2148 06/09/2026 13:50:00 MB-L5-01Mainboard Lantai 5 L5-AI-03 Analog Input 3 3.05 V
2149 06/09/2026 13:50:00 MB-L5-01Mainboard Lantai 5 L5-BGT-03 Black Globe Temperature 3 30.50 °C
2150 06/09/2026 13:50:00 MB-L5-01Mainboard Lantai 5 L5-HFT-02 Heat Flow Temperature 2 30.90 °C
2151 06/09/2026 13:50:00 WS-MOD-01Weather Station Module WS-PRES Tekanan Udara 908.00 hPa
2152 06/09/2026 13:50:00 MB-L5-01Mainboard Lantai 5 L5-SHT-03-RH SHT20 3 Humidity 31.80 %RH
2153 06/09/2026 13:50:00 MB-L5-01Mainboard Lantai 5 L5-SHT-03-T SHT20 3 Temperature 31.30 °C
2154 06/09/2026 13:50:00 MB-L5-01Mainboard Lantai 5 L5-SHT-02-RH SHT20 2 Humidity 32.50 %RH
2155 06/09/2026 13:50:00 WS-MOD-01Weather Station Module WS-RH Kelembapan Udara 37.20 %RH
2156 06/09/2026 13:50:00 WS-MOD-01Weather Station Module WS-TEMP Suhu Udara 29.20 °C
2157 06/09/2026 13:50:00 WS-MOD-01Weather Station Module WS-DIR Arah Angin 128.90 °
2158 06/09/2026 13:50:00 WS-MOD-01Weather Station Module WS-WIND Kecepatan Angin 4.60 m/s
2159 06/09/2026 13:50:00 MB-L5-01Mainboard Lantai 5 L5-AI-01 Analog Input 1 3.05 V
2160 06/09/2026 13:50:00 MB-L5-01Mainboard Lantai 5 L5-ST-02 Surface Temperature 2 33.80 °C
2161 06/09/2026 13:50:00 MB-L5-01Mainboard Lantai 5 L5-AI-06 Analog Input 6 3.05 V
2162 06/09/2026 13:50:00 MB-L5-01Mainboard Lantai 5 L5-BGT-01 Black Globe Temperature 1 30.50 °C
2163 06/09/2026 13:50:00 MB-L5-01Mainboard Lantai 5 L5-LUX-06 Illuminance / LUX 6 1,149.70 lux
2164 06/09/2026 13:50:00 MB-L5-01Mainboard Lantai 5 L5-RAD-02 Radiation 2 4.00 W/m²
2165 06/09/2026 13:50:00 MB-L5-01Mainboard Lantai 5 L5-RAD-01 Radiation 1 5.00 W/m²
2166 06/09/2026 13:50:00 MB-L5-01Mainboard Lantai 5 L5-AI-04 Analog Input 4 3.05 V
2167 06/09/2026 13:49:00 MB-L5-01Mainboard Lantai 5 L5-LUX-03 Illuminance / LUX 3 1,091.30 lux
2168 06/09/2026 13:49:00 MB-L5-01Mainboard Lantai 5 L5-LUX-02 Illuminance / LUX 2 2,727.80 lux
2169 06/09/2026 13:49:00 MB-L5-01Mainboard Lantai 5 L5-SHT-01-RH SHT20 1 Humidity 32.90 %RH
2170 06/09/2026 13:49:00 MB-L5-01Mainboard Lantai 5 L5-AI-05 Analog Input 5 3.05 V
2171 06/09/2026 13:49:00 MB-L5-01Mainboard Lantai 5 L5-ST-01 Surface Temperature 1 32.80 °C
2172 06/09/2026 13:49:00 MB-L5-01Mainboard Lantai 5 L5-SHT-01-T SHT20 1 Temperature 31.20 °C
2173 06/09/2026 13:49:00 MB-L5-01Mainboard Lantai 5 L5-SHT-02-T SHT20 2 Temperature 30.60 °C
2174 06/09/2026 13:49:00 MB-L5-01Mainboard Lantai 5 L5-LUX-01 Illuminance / LUX 1 620.50 lux
2175 06/09/2026 13:49:00 MB-L5-01Mainboard Lantai 5 L5-AI-03 Analog Input 3 3.05 V
2176 06/09/2026 13:49:00 MB-L5-01Mainboard Lantai 5 L5-BGT-03 Black Globe Temperature 3 30.40 °C
2177 06/09/2026 13:49:00 MB-L5-01Mainboard Lantai 5 L5-HFT-02 Heat Flow Temperature 2 30.90 °C
2178 06/09/2026 13:49:00 WS-MOD-01Weather Station Module WS-PRES Tekanan Udara 908.00 hPa
2179 06/09/2026 13:49:00 MB-L5-01Mainboard Lantai 5 L5-SHT-03-RH SHT20 3 Humidity 32.30 %RH
2180 06/09/2026 13:49:00 MB-L5-01Mainboard Lantai 5 L5-SHT-03-T SHT20 3 Temperature 31.00 °C
2181 06/09/2026 13:49:00 MB-L5-01Mainboard Lantai 5 L5-SHT-02-RH SHT20 2 Humidity 32.80 %RH
2182 06/09/2026 13:49:00 WS-MOD-01Weather Station Module WS-RH Kelembapan Udara 36.30 %RH
2183 06/09/2026 13:49:00 WS-MOD-01Weather Station Module WS-TEMP Suhu Udara 29.80 °C
2184 06/09/2026 13:49:00 WS-MOD-01Weather Station Module WS-DIR Arah Angin 183.70 °
2185 06/09/2026 13:49:00 WS-MOD-01Weather Station Module WS-WIND Kecepatan Angin 6.36 m/s
2186 06/09/2026 13:49:00 MB-L5-01Mainboard Lantai 5 L5-AI-01 Analog Input 1 3.05 V
2187 06/09/2026 13:49:00 MB-L5-01Mainboard Lantai 5 L5-ST-02 Surface Temperature 2 33.70 °C
2188 06/09/2026 13:49:00 MB-L5-01Mainboard Lantai 5 L5-AI-06 Analog Input 6 3.05 V
2189 06/09/2026 13:49:00 MB-L5-01Mainboard Lantai 5 L5-BGT-01 Black Globe Temperature 1 30.50 °C
2190 06/09/2026 13:49:00 MB-L5-01Mainboard Lantai 5 L5-LUX-06 Illuminance / LUX 6 1,138.00 lux
2191 06/09/2026 13:49:00 MB-L5-01Mainboard Lantai 5 L5-RAD-02 Radiation 2 4.00 W/m²
2192 06/09/2026 13:49:00 MB-L5-01Mainboard Lantai 5 L5-RAD-01 Radiation 1 5.00 W/m²
2193 06/09/2026 13:49:00 MB-L5-01Mainboard Lantai 5 L5-AI-04 Analog Input 4 3.05 V
2194 06/09/2026 13:49:00 MB-L5-01Mainboard Lantai 5 L5-LUX-05 Illuminance / LUX 5 32,564.20 lux
2195 06/09/2026 13:49:00 MB-L5-01Mainboard Lantai 5 L5-AI-02 Analog Input 2 3.05 V
2196 06/09/2026 13:49:00 MB-L5-01Mainboard Lantai 5 L5-HFT-01 Heat Flow Temperature 1 33.80 °C
2197 06/09/2026 13:49:00 MB-L5-01Mainboard Lantai 5 L5-BGT-02 Black Globe Temperature 2 30.10 °C
2198 06/09/2026 13:49:00 MB-L5-01Mainboard Lantai 5 L5-LUX-04 Illuminance / LUX 4 774.20 lux
2199 06/09/2026 13:48:00 MB-L5-01Mainboard Lantai 5 L5-ST-01 Surface Temperature 1 32.30 °C
2200 06/09/2026 13:48:00 MB-L5-01Mainboard Lantai 5 L5-SHT-01-T SHT20 1 Temperature 30.90 °C
Menampilkan maksimal 100 data per halaman